createdAt,value
2023-02-27T00:00:24.424Z,5.13
2023-02-27T00:02:52.482Z,6.70
2023-02-27T00:05:20.186Z,5.20
2023-02-27T00:07:47.490Z,6.60
2023-02-27T00:10:14.947Z,6.63
2023-02-27T00:12:42.685Z,8.43
2023-02-27T00:15:13.057Z,8.95
2023-02-27T00:17:40.564Z,5.00
2023-02-27T00:20:11.284Z,7.22
2023-02-27T00:22:39.542Z,5.28
2023-02-27T00:25:07.986Z,6.97
2023-02-27T00:27:35.390Z,4.65
2023-02-27T00:30:05.253Z,7.78
2023-02-27T00:32:32.487Z,6.57
2023-02-27T00:34:59.733Z,5.82
2023-02-27T00:37:27.670Z,4.72
2023-02-27T00:39:54.855Z,6.75
2023-02-27T00:42:22.282Z,4.05
2023-02-27T00:44:49.471Z,4.22
2023-02-27T00:47:16.937Z,5.50
2023-02-27T00:49:44.221Z,4.00
2023-02-27T00:52:11.359Z,4.32
2023-02-27T00:54:38.597Z,11.50
2023-02-27T00:57:05.868Z,7.70
2023-02-27T00:59:33.135Z,5.57
2023-02-27T01:02:00.403Z,4.75
2023-02-27T01:04:27.697Z,5.93
2023-02-27T01:06:54.865Z,4.22
2023-02-27T01:09:22.145Z,4.18
2023-02-27T01:11:49.330Z,3.63
2023-02-27T01:14:16.883Z,5.78
2023-02-27T01:16:44.173Z,3.83
2023-02-27T01:19:11.310Z,5.30
2023-02-27T01:21:38.436Z,5.90
2023-02-27T01:24:05.791Z,4.55
2023-02-27T01:26:32.938Z,4.63
2023-02-27T01:29:00.115Z,6.82
2023-02-27T01:31:28.187Z,5.80
2023-02-27T01:33:55.604Z,4.82
2023-02-27T01:36:22.766Z,6.75
2023-02-27T01:38:49.983Z,4.25
2023-02-27T01:41:17.414Z,4.35
2023-02-27T01:43:59.661Z,4.07
2023-02-27T01:46:29.002Z,5.55
2023-02-27T01:49:16.449Z,4.00
2023-02-27T01:51:50.730Z,5.07
2023-02-27T01:54:20.520Z,3.40
2023-02-27T01:56:48.441Z,4.93
2023-02-27T01:59:16.172Z,3.70
2023-02-27T02:01:44.126Z,5.85
2023-02-27T02:04:26.547Z,4.63
2023-02-27T02:07:03.006Z,4.93
2023-02-27T02:09:31.217Z,4.25
2023-02-27T02:11:59.272Z,6.57
2023-02-27T02:14:26.698Z,5.43
2023-02-27T02:17:09.042Z,3.95
2023-02-27T02:20:07.468Z,4.68
2023-02-27T02:22:58.736Z,4.55
2023-02-27T02:25:44.671Z,4.18
2023-02-27T02:28:38.645Z,3.45
2023-02-27T02:31:43.367Z,3.75
2023-02-27T02:34:26.177Z,5.22
2023-02-27T02:37:02.254Z,2.85
2023-02-27T02:39:55.236Z,3.85
2023-02-27T02:42:27.204Z,3.10
2023-02-27T02:45:08.628Z,4.45
2023-02-27T02:47:58.499Z,4.68
2023-02-27T02:50:47.288Z,4.40
2023-02-27T02:53:38.030Z,3.83
2023-02-27T02:56:08.347Z,4.32
2023-02-27T02:58:48.015Z,4.15
2023-02-27T03:01:24.159Z,3.83
2023-02-27T03:03:57.264Z,3.85
2023-02-27T03:06:29.549Z,3.90
2023-02-27T03:09:02.193Z,4.00
2023-02-27T03:11:31.810Z,3.90
2023-02-27T03:14:08.353Z,3.13
2023-02-27T03:16:47.829Z,2.88
2023-02-27T03:19:22.244Z,2.70
2023-02-27T03:21:59.775Z,3.67
2023-02-27T03:24:38.050Z,4.35
2023-02-27T03:27:05.851Z,3.85
2023-02-27T03:29:43.991Z,5.10
2023-02-27T03:32:17.343Z,5.53
2023-02-27T03:34:45.005Z,3.10
2023-02-27T03:37:27.687Z,5.55
2023-02-27T03:40:25.973Z,4.97
2023-02-27T03:43:02.371Z,5.95
2023-02-27T03:45:45.556Z,4.30
2023-02-27T03:48:12.703Z,5.03
2023-02-27T03:50:39.876Z,3.65
2023-02-27T03:53:13.059Z,3.47
2023-02-27T03:55:44.357Z,5.93
2023-02-27T03:58:11.544Z,5.72
2023-02-27T04:00:38.792Z,4.93
2023-02-27T04:03:06.207Z,4.82
2023-02-27T04:05:36.204Z,3.70
2023-02-27T04:08:38.122Z,4.20
2023-02-27T04:11:14.362Z,6.38
2023-02-27T04:13:51.274Z,4.38
2023-02-27T04:16:45.873Z,5.38
2023-02-27T04:19:31.721Z,6.28
2023-02-27T04:22:27.412Z,3.67
2023-02-27T04:24:54.420Z,3.83
2023-02-27T04:27:27.466Z,3.97
2023-02-27T04:29:54.944Z,5.65
2023-02-27T04:32:36.031Z,6.22
2023-02-27T04:35:11.479Z,6.35
2023-02-27T04:37:52.186Z,5.45
2023-02-27T04:40:23.795Z,3.63
2023-02-27T04:42:54.942Z,5.18
2023-02-27T04:45:24.566Z,4.70
2023-02-27T04:47:54.587Z,5.57
2023-02-27T04:50:35.972Z,7.82
2023-02-27T04:53:09.153Z,6.07
2023-02-27T04:55:41.573Z,5.15
2023-02-27T04:58:18.979Z,5.38
2023-02-27T05:00:50.977Z,5.50
2023-02-27T05:03:23.990Z,6.63
2023-02-27T05:05:53.788Z,4.93
2023-02-27T05:08:22.245Z,4.13
2023-02-27T05:10:53.940Z,4.75
2023-02-27T05:13:26.447Z,4.70
2023-02-27T05:16:02.375Z,4.72
2023-02-27T05:18:29.666Z,5.15
2023-02-27T05:25:02.652Z,3.97
2023-02-27T05:27:33.972Z,4.65
2023-02-27T05:30:19.997Z,4.65
2023-02-27T05:32:58.734Z,6.45
2023-02-27T05:35:57.721Z,4.50
2023-02-27T05:38:40.577Z,4.45
2023-02-27T05:41:15.823Z,5.80
2023-02-27T05:44:15.776Z,9.05
2023-02-27T05:46:54.972Z,5.57
2023-02-27T05:49:37.452Z,3.50
2023-02-27T05:52:35.457Z,3.58
2023-02-27T05:55:25.200Z,6.18
2023-02-27T05:58:10.811Z,5.00
2023-02-27T06:00:52.057Z,6.85
2023-02-27T06:03:23.483Z,7.05
2023-02-27T06:05:53.333Z,5.03
2023-02-27T06:08:22.068Z,6.35
2023-02-27T06:10:52.315Z,6.63
2023-02-27T06:13:22.907Z,9.63
2023-02-27T06:15:50.917Z,6.47
2023-02-27T06:18:24.538Z,5.22
2023-02-27T06:20:55.289Z,7.20
2023-02-27T06:23:25.161Z,5.38
2023-02-27T06:25:54.679Z,6.30
2023-02-27T06:28:23.509Z,5.90
2023-02-27T06:30:55.177Z,5.45
2023-02-27T06:33:26.228Z,5.20
2023-02-27T06:36:07.827Z,6.22
2023-02-27T06:38:54.799Z,6.22
2023-02-27T06:44:51.578Z,6.80
2023-02-27T06:47:18.841Z,5.53
2023-02-27T06:49:46.064Z,9.05
2023-02-27T06:52:13.286Z,6.43
2023-02-27T06:54:40.554Z,9.25
2023-02-27T06:57:07.730Z,7.93
2023-02-27T06:59:35.146Z,10.35
2023-02-27T07:02:02.621Z,7.32
2023-02-27T07:04:29.984Z,5.72
2023-02-27T07:07:34.392Z,5.18
2023-02-27T07:09:46.253Z,5.03
2023-02-27T07:12:13.608Z,7.80
2023-02-27T07:14:40.968Z,9.73
2023-02-27T07:17:08.428Z,6.80
2023-02-27T07:19:37.113Z,8.90
2023-02-27T07:22:29.207Z,10.27
2023-02-27T07:24:56.501Z,8.82
2023-02-27T07:27:23.672Z,7.00
2023-02-27T07:29:50.964Z,7.35
2023-02-27T07:32:18.467Z,9.77
2023-02-27T07:34:45.828Z,7.68
2023-02-27T07:37:13.052Z,8.55
2023-02-27T07:39:40.249Z,6.78
2023-02-27T07:42:07.443Z,8.85
2023-02-27T07:44:35.142Z,7.28
2023-02-27T07:47:02.447Z,5.07
2023-02-27T07:49:29.683Z,6.57
2023-02-27T07:51:56.901Z,6.22
2023-02-27T07:54:24.210Z,7.75
2023-02-27T07:56:51.453Z,8.75
2023-02-27T07:59:18.917Z,9.13
2023-02-27T08:01:46.186Z,5.57
2023-02-27T08:04:13.413Z,6.93
2023-02-27T08:06:40.738Z,7.55
2023-02-27T08:09:08.339Z,6.22
2023-02-27T08:11:35.591Z,7.50
2023-02-27T08:14:03.299Z,9.05
2023-02-27T08:16:31.739Z,9.63
2023-02-27T08:19:00.468Z,11.35
2023-02-27T08:21:28.721Z,10.82
2023-02-27T08:23:56.054Z,14.07
2023-02-27T08:26:23.743Z,7.53
2023-02-27T08:28:51.182Z,12.95
2023-02-27T08:31:18.538Z,8.10
2023-02-27T08:33:45.698Z,9.43
2023-02-27T08:36:13.178Z,9.32
2023-02-27T08:38:40.337Z,8.40
2023-02-27T08:41:07.528Z,8.35
2023-02-27T08:43:34.782Z,8.73
2023-02-27T08:46:02.487Z,6.57
2023-02-27T08:48:29.727Z,8.52
2023-02-27T08:50:58.005Z,8.63
2023-02-27T08:53:25.854Z,8.25
2023-02-27T08:55:53.376Z,10.30
2023-02-27T08:58:20.984Z,7.93
2023-02-27T09:00:50.655Z,13.57
2023-02-27T09:03:17.988Z,6.45
2023-02-27T09:05:45.287Z,11.05
2023-02-27T09:08:12.566Z,7.82
2023-02-27T09:10:39.875Z,7.68
2023-02-27T09:13:08.507Z,8.93
2023-02-27T09:15:35.780Z,9.88
2023-02-27T09:18:05.470Z,8.90
2023-02-27T09:20:35.968Z,8.63
2023-02-27T09:23:03.928Z,12.30
2023-02-27T09:25:31.374Z,9.20
2023-02-27T09:27:58.728Z,9.40
2023-02-27T09:30:26.019Z,7.68
2023-02-27T09:32:53.241Z,7.30
2023-02-27T09:35:20.519Z,12.80
2023-02-27T09:37:49.517Z,7.88
2023-02-27T09:40:29.148Z,10.75
2023-02-27T09:43:10.201Z,6.38
2023-02-27T09:45:39.354Z,8.57
2023-02-27T09:48:26.950Z,7.30
2023-02-27T09:50:54.255Z,5.30
2023-02-27T09:53:32.455Z,7.88
2023-02-27T09:56:10.830Z,8.73
2023-02-27T09:58:44.943Z,7.43
2023-02-27T10:01:22.029Z,7.78
2023-02-27T10:03:58.515Z,7.68
2023-02-27T10:06:28.870Z,5.85
2023-02-27T10:09:14.469Z,5.45
2023-02-27T10:11:56.924Z,8.07
2023-02-27T10:14:50.606Z,5.90
2023-02-27T10:17:28.601Z,7.38
2023-02-27T10:20:00.481Z,10.32
2023-02-27T10:22:35.112Z,6.15
2023-02-27T10:25:37.618Z,4.55
2023-02-27T10:28:19.511Z,7.70
2023-02-27T10:31:18.176Z,9.50
2023-02-27T10:34:03.764Z,5.50
2023-02-27T10:36:37.541Z,5.45
2023-02-27T10:39:09.117Z,8.85
2023-02-27T10:41:43.736Z,8.18
2023-02-27T10:44:29.292Z,8.82
2023-02-27T10:47:01.054Z,4.63
2023-02-27T10:49:31.246Z,7.03
2023-02-27T10:52:18.887Z,6.32
2023-02-27T10:54:47.062Z,5.00
2023-02-27T10:57:41.267Z,6.40
2023-02-27T11:00:56.803Z,3.38
2023-02-27T11:03:31.851Z,4.80
2023-02-27T11:06:25.587Z,3.95
2023-02-27T11:09:13.005Z,4.78
2023-02-27T11:11:40.524Z,3.67
2023-02-27T11:14:47.213Z,6.55
2023-02-27T11:17:25.100Z,6.70
2023-02-27T11:19:52.394Z,7.70
2023-02-27T11:22:28.248Z,6.75
2023-02-27T11:25:20.598Z,5.90
2023-02-27T11:27:55.053Z,2.63
2023-02-27T11:30:32.132Z,7.28
2023-02-27T11:33:13.673Z,7.05
2023-02-27T11:35:57.263Z,6.18
2023-02-27T11:38:36.695Z,4.55
2023-02-27T11:41:13.429Z,5.07
2023-02-27T11:43:59.985Z,4.47
2023-02-27T11:47:09.098Z,4.70
2023-02-27T11:50:04.542Z,8.43
2023-02-27T11:52:58.160Z,3.58
2023-02-27T11:55:28.674Z,8.57
2023-02-27T11:58:05.897Z,4.25
2023-02-27T12:00:46.804Z,3.42
2023-02-27T12:03:32.034Z,4.07
2023-02-27T12:06:04.919Z,2.38
2023-02-27T12:08:42.848Z,3.33
2023-02-27T12:11:14.694Z,3.78
2023-02-27T12:13:46.273Z,3.85
2023-02-27T12:16:23.124Z,8.07
2023-02-27T12:19:03.241Z,3.05
2023-02-27T12:22:02.209Z,3.45
2023-02-27T12:24:47.734Z,6.97
2023-02-27T12:27:33.456Z,2.03
2023-02-27T12:30:44.307Z,6.45
2023-02-27T12:33:42.498Z,3.47
2023-02-27T12:36:11.418Z,1.70
2023-02-27T12:38:39.065Z,9.43
2023-02-27T12:41:12.175Z,8.95
2023-02-27T12:43:51.328Z,14.48
2023-02-27T12:46:41.102Z,2.25
2023-02-27T12:49:31.668Z,4.30
2023-02-27T12:52:38.047Z,4.32
2023-02-27T12:55:11.055Z,2.90
2023-02-27T12:58:11.743Z,2.47
2023-02-27T13:00:55.128Z,1.33
2023-02-27T13:03:34.543Z,2.67
2023-02-27T13:06:14.397Z,1.63
2023-02-27T13:09:22.185Z,1.02
2023-02-27T13:12:23.506Z,1.90
2023-02-27T13:15:12.577Z,2.60
2023-02-27T13:17:47.516Z,2.15
2023-02-27T13:20:30.263Z,4.13
2023-02-27T13:23:32.055Z,2.90
2023-02-27T13:26:01.044Z,1.17
2023-02-27T13:28:29.301Z,2.42
2023-02-27T13:31:20.661Z,3.15
2023-02-27T13:33:48.817Z,1.50
2023-02-27T13:36:24.193Z,1.30
2023-02-27T13:38:53.706Z,2.00
2023-02-27T13:41:20.851Z,3.20
2023-02-27T13:43:53.303Z,1.92
2023-02-27T13:46:30.447Z,1.80
2023-02-27T13:49:20.057Z,3.60
2023-02-27T13:51:56.590Z,1.77
2023-02-27T13:54:29.556Z,2.35
2023-02-27T13:56:59.487Z,1.70
2023-02-27T13:59:37.562Z,0.70
2023-02-27T14:02:07.068Z,1.27
2023-02-27T14:04:37.052Z,2.50
2023-02-27T14:07:10.820Z,2.53
2023-02-27T14:09:40.606Z,1.75
2023-02-27T14:12:28.901Z,1.77
2023-02-27T14:14:59.597Z,1.40
2023-02-27T14:17:36.561Z,1.65
2023-02-27T14:20:06.582Z,1.95
2023-02-27T14:23:11.236Z,1.25
2023-02-27T14:25:41.204Z,2.22
2023-02-27T14:28:35.943Z,1.17
2023-02-27T14:31:44.833Z,1.95
2023-02-27T14:34:15.871Z,1.80
2023-02-27T14:36:51.449Z,1.45
2023-02-27T14:39:35.881Z,2.35
2023-02-27T14:42:36.924Z,2.00
2023-02-27T14:45:04.849Z,1.83
2023-02-27T14:47:38.394Z,1.17
2023-02-27T14:50:08.445Z,3.15
2023-02-27T14:52:43.236Z,2.35
2023-02-27T14:55:18.016Z,2.90
2023-02-27T14:58:01.077Z,1.83
2023-02-27T15:00:40.311Z,4.50
2023-02-27T15:03:22.276Z,1.73
2023-02-27T15:05:51.790Z,4.78
2023-02-27T15:08:22.336Z,2.55
2023-02-27T15:10:51.175Z,2.65
2023-02-27T15:13:28.560Z,1.90
2023-02-27T15:16:21.195Z,2.13
2023-02-27T15:18:50.845Z,3.15
2023-02-27T15:21:21.557Z,2.53
2023-02-27T15:24:03.740Z,7.20
2023-02-27T15:26:37.097Z,1.70
2023-02-27T15:29:05.694Z,1.67
2023-02-27T15:31:33.074Z,2.25
2023-02-27T15:34:02.143Z,1.35
2023-02-27T15:36:34.004Z,2.38
2023-02-27T15:39:17.473Z,4.68
2023-02-27T15:41:48.484Z,1.52
2023-02-27T15:44:25.023Z,3.10
2023-02-27T15:46:52.989Z,1.25
2023-02-27T15:49:21.973Z,2.70
2023-02-27T15:51:58.405Z,5.85
2023-02-27T15:54:25.584Z,4.10
2023-02-27T15:56:53.733Z,2.35
2023-02-27T15:59:20.888Z,2.60
2023-02-27T16:01:49.740Z,3.03
2023-02-27T16:04:23.463Z,2.88
2023-02-27T16:06:58.538Z,4.93
2023-02-27T16:09:30.390Z,2.45
2023-02-27T16:12:39.673Z,3.20
2023-02-27T16:15:34.607Z,2.85
2023-02-27T16:18:07.818Z,3.17
2023-02-27T16:20:45.024Z,3.53
2023-02-27T16:23:22.061Z,1.80
2023-02-27T16:26:43.030Z,1.58
2023-02-27T16:29:21.663Z,1.60
2023-02-27T16:31:51.886Z,1.90
2023-02-27T16:34:42.747Z,4.68
2023-02-27T16:37:27.674Z,1.92
2023-02-27T16:39:54.835Z,2.08
2023-02-27T16:42:22.124Z,2.50
2023-02-27T16:44:50.335Z,1.85
2023-02-27T16:47:17.537Z,1.90
2023-02-27T16:49:46.300Z,2.33
2023-02-27T16:52:13.555Z,2.35
2023-02-27T16:54:40.699Z,2.13
2023-02-27T16:57:09.079Z,3.67
2023-02-27T16:59:40.382Z,2.20
2023-02-27T17:02:13.055Z,3.35
2023-02-27T17:04:43.903Z,3.33
2023-02-27T17:07:15.746Z,2.50
2023-02-27T17:09:44.152Z,4.22
2023-02-27T17:12:11.645Z,2.13
2023-02-27T17:14:38.901Z,3.50
2023-02-27T17:17:06.686Z,2.20
2023-02-27T17:19:33.993Z,5.53
2023-02-27T17:22:01.116Z,6.70
2023-02-27T17:24:28.305Z,5.82
2023-02-27T17:26:55.859Z,5.30
2023-02-27T17:29:23.859Z,4.15
2023-02-27T17:31:51.091Z,3.20
2023-02-27T17:34:18.463Z,4.97
2023-02-27T17:36:45.642Z,5.70
2023-02-27T17:39:14.173Z,3.40
2023-02-27T17:41:43.665Z,3.85
2023-02-27T17:44:11.691Z,8.68
2023-02-27T17:46:39.512Z,3.67
2023-02-27T17:49:06.862Z,4.10
2023-02-27T17:51:34.028Z,3.25
2023-02-27T17:54:05.322Z,4.05
2023-02-27T17:56:32.451Z,5.20
2023-02-27T17:58:59.696Z,7.05
2023-02-27T18:01:27.822Z,5.22
2023-02-27T18:03:55.176Z,4.90
2023-02-27T18:06:23.126Z,5.07
2023-02-27T18:08:50.355Z,4.95
2023-02-27T18:11:19.778Z,5.28
2023-02-27T18:13:47.873Z,3.75
2023-02-27T18:16:15.324Z,7.03
2023-02-27T18:18:43.126Z,7.18
2023-02-27T18:21:16.100Z,7.80
2023-02-27T18:23:44.000Z,5.63
2023-02-27T18:26:28.402Z,4.72
2023-02-27T18:29:02.128Z,5.77
2023-02-27T18:31:32.506Z,10.13
2023-02-27T18:34:00.379Z,6.03
2023-02-27T18:36:29.320Z,8.00
2023-02-27T18:38:57.369Z,8.85
2023-02-27T18:41:24.505Z,8.25
2023-02-27T18:43:51.922Z,6.93
2023-02-27T18:46:19.583Z,6.97
2023-02-27T18:48:47.152Z,8.40
2023-02-27T18:51:15.635Z,6.35
2023-02-27T18:53:45.758Z,6.97
2023-02-27T18:56:14.611Z,8.18
2023-02-27T18:58:42.448Z,9.23
2023-02-27T19:01:23.685Z,9.05
2023-02-27T19:03:51.209Z,11.35
2023-02-27T19:06:18.376Z,7.68
2023-02-27T19:08:46.121Z,10.05
2023-02-27T19:11:33.032Z,7.50
2023-02-27T19:14:04.730Z,10.05
2023-02-27T19:16:32.428Z,9.23
2023-02-27T19:19:01.155Z,8.10
2023-02-27T19:21:28.975Z,7.03
2023-02-27T19:23:56.277Z,9.75
2023-02-27T19:26:24.317Z,8.80
2023-02-27T19:28:55.167Z,10.68
2023-02-27T19:31:24.116Z,7.70
2023-02-27T19:33:51.435Z,8.15
2023-02-27T19:36:20.784Z,8.98
2023-02-27T19:38:48.181Z,6.97
2023-02-27T19:41:18.943Z,7.75
2023-02-27T19:43:46.668Z,7.45
2023-02-27T19:46:19.280Z,7.65
2023-02-27T19:48:46.787Z,8.75
2023-02-27T19:51:14.826Z,7.57
2023-02-27T19:53:45.231Z,8.10
2023-02-27T19:56:15.473Z,5.38
2023-02-27T19:58:42.774Z,8.68
2023-02-27T20:01:10.132Z,6.45
2023-02-27T20:03:38.074Z,7.30
2023-02-27T20:06:05.762Z,5.85
2023-02-27T20:08:33.652Z,6.65
2023-02-27T20:11:03.384Z,7.60
2023-02-27T20:13:31.246Z,7.05
2023-02-27T20:16:00.646Z,7.45
2023-02-27T20:18:29.886Z,6.93
2023-02-27T20:21:04.417Z,9.77
2023-02-27T20:23:32.822Z,11.70
2023-02-27T20:26:00.366Z,11.82
2023-02-27T20:28:31.779Z,7.53
2023-02-27T20:30:58.893Z,8.02
2023-02-27T20:33:26.062Z,10.23
2023-02-27T20:35:53.179Z,10.27
2023-02-27T20:38:22.587Z,9.32
2023-02-27T20:40:49.733Z,12.32
2023-02-27T20:43:16.847Z,9.35
2023-02-27T20:45:43.941Z,9.93
2023-02-27T20:48:11.090Z,10.30
2023-02-27T20:50:38.316Z,9.90
2023-02-27T20:53:05.466Z,11.07
2023-02-27T20:55:32.681Z,8.77
2023-02-27T20:57:59.929Z,11.38
2023-02-27T21:00:27.727Z,8.82
2023-02-27T21:02:54.810Z,10.13
2023-02-27T21:05:22.488Z,9.52
2023-02-27T21:07:50.614Z,9.20
2023-02-27T21:10:18.090Z,10.60
2023-02-27T21:12:45.217Z,8.45
2023-02-27T21:15:12.802Z,9.70
2023-02-27T21:17:40.093Z,10.18
2023-02-27T21:20:08.348Z,9.77
2023-02-27T21:22:35.525Z,9.02
2023-02-27T21:25:02.772Z,9.27
2023-02-27T21:27:30.102Z,7.50
2023-02-27T21:29:57.237Z,7.72
2023-02-27T21:32:24.369Z,9.25
2023-02-27T21:34:51.701Z,7.50
2023-02-27T21:37:19.337Z,9.07
2023-02-27T21:39:52.360Z,8.02
2023-02-27T21:42:19.617Z,6.68
2023-02-27T21:44:46.756Z,8.40
2023-02-27T21:47:13.910Z,9.40
2023-02-27T21:49:41.088Z,7.43
2023-02-27T21:52:08.876Z,8.52
2023-02-27T21:54:36.066Z,6.97
2023-02-27T21:57:03.366Z,10.85
2023-02-27T21:59:30.960Z,9.02
2023-02-27T22:01:58.407Z,10.55
2023-02-27T22:04:25.794Z,8.93
2023-02-27T22:06:53.124Z,6.90
2023-02-27T22:09:20.531Z,6.18
2023-02-27T22:11:48.235Z,7.90
2023-02-27T22:14:15.456Z,6.45
2023-02-27T22:16:42.859Z,9.50
2023-02-27T22:19:12.320Z,9.52
2023-02-27T22:21:39.790Z,8.20
2023-02-27T22:24:07.496Z,5.70
2023-02-27T22:26:34.921Z,8.05
2023-02-27T22:29:02.180Z,7.70
2023-02-27T22:31:32.279Z,7.20
2023-02-27T22:34:04.578Z,7.47
2023-02-27T22:36:32.740Z,6.22
2023-02-27T22:38:59.931Z,7.10
2023-02-27T22:41:32.698Z,8.10
2023-02-27T22:44:02.154Z,5.90
2023-02-27T22:46:36.488Z,7.70
2023-02-27T22:49:06.158Z,5.80
2023-02-27T22:51:33.375Z,7.50
2023-02-27T22:54:03.019Z,6.20
2023-02-27T22:56:30.664Z,6.00
2023-02-27T22:58:57.917Z,8.15
2023-02-27T23:01:28.716Z,7.75
2023-02-27T23:03:57.839Z,6.43
2023-02-27T23:06:30.881Z,6.30
2023-02-27T23:08:58.660Z,6.20
2023-02-27T23:11:26.250Z,5.00
2023-02-27T23:13:53.600Z,6.40
2023-02-27T23:16:20.930Z,9.50
2023-02-27T23:18:54.004Z,7.05
2023-02-27T23:21:24.142Z,6.35
2023-02-27T23:23:53.770Z,6.63
2023-02-27T23:26:21.310Z,7.70
2023-02-27T23:28:48.448Z,6.00
2023-02-27T23:31:15.923Z,7.57
2023-02-27T23:33:43.056Z,6.20
2023-02-27T23:36:10.663Z,7.32
2023-02-27T23:38:37.755Z,5.40
2023-02-27T23:41:09.446Z,7.97
2023-02-27T23:43:36.536Z,6.63
2023-02-27T23:46:14.672Z,6.03
2023-02-27T23:48:42.501Z,4.13
2023-02-27T23:51:11.064Z,4.90
2023-02-27T23:53:40.050Z,5.82
2023-02-27T23:56:21.629Z,9.38
2023-02-27T23:58:56.682Z,7.93
